IE-0052 weather

Lough Sheelin Airstrip
Aghnaskeagh, County Cavan, Ireland

Public forecast

Using degrees Celsius for public forecast. Weather courtesy of forecast.io.

Closest aviation weather report (METAR) to Lough Sheelin Airstrip

Closest report is Casement Air Base, 42.0 nm (77.8 km) SE. Retrieved 2020/07/07 12:00 UTC (12 minutes ago):

EIME 071200Z 09005KT 6000 RA FEW010 SCT018 BKN021 12/11 Q1015

Closest aviation forecast (TAF) to Lough Sheelin Airstrip

Closest forecast is Dublin Airport, 42.6 nm (78.9 km) ESE. Retrieved 2020/07/07 12:10 UTC (2 minutes ago):

TAF EIDW 071100Z 0712/0812 14005KT 8000 -RADZ SCT008 BKN025 TEMPO 0712/0803 4000 RA BKN010 BECMG 0714/0716 VRB03KT PROB40 TEMPO 0718/0803 2000 BR BKN003 BECMG 0807/0809 03007KT 9000 BKN015